KBRY/BRY METAR and TAF weather

Enter ICAO airport designator
Station Type Date Time Source
KBRY METAR 2021/07/29 02:15 UTC NOAA

KBRY 290215Z AUTO 00000KT 10SM CLR 23/22 A3002 RMK AO1


Station Type Date Time Source
KBRY Decoded METAR 2021/07/29 02:15 UTC NOAA

Station name not available
Jul 28, 2021 - 10:15 PM EDT / 2021.07.29 0215 UTC
Wind: Calm:0
Visibility: 10 mile(s):0
Sky conditions: clear
Temperature: 73 F (23 C)
Dew Point: 71 F (22 C)
Relative Humidity: 94%
Pressure (altimeter): 30.02 in. Hg (1016 hPa)
ob: KBRY 290215Z AUTO 00000KT 10SM CLR 23/22 A3002 RMK AO1
cycle: 2

Station Type Date Time Source
KBRY TAF UTC NOAA

Error!

Example: see airport list